createdAt,value
2023-04-22T00:01:15.134Z,99.90
2023-04-22T00:03:42.314Z,99.90
2023-04-22T00:06:10.808Z,99.90
2023-04-22T00:08:37.682Z,99.90
2023-04-22T00:11:04.683Z,99.90
2023-04-22T00:13:31.496Z,99.90
2023-04-22T00:15:58.397Z,99.90
2023-04-22T00:18:26.076Z,99.90
2023-04-22T00:20:52.978Z,99.90
2023-04-22T00:23:21.150Z,99.90
2023-04-22T00:25:48.062Z,99.90
2023-04-22T00:28:14.935Z,99.90
2023-04-22T00:30:41.718Z,99.90
2023-04-22T00:33:09.600Z,99.90
2023-04-22T00:35:36.477Z,99.90
2023-04-22T00:38:03.376Z,99.90
2023-04-22T00:40:40.196Z,99.90
2023-04-22T00:43:08.831Z,99.90
2023-04-22T00:45:37.107Z,99.90
2023-04-22T00:48:04.335Z,99.90
2023-04-22T00:50:31.370Z,99.90
2023-04-22T00:52:58.222Z,99.90
2023-04-22T00:55:25.548Z,99.90
2023-04-22T00:57:55.310Z,99.90
2023-04-22T01:00:27.198Z,99.90
2023-04-22T01:02:54.949Z,99.90
2023-04-22T01:05:22.789Z,99.90
2023-04-22T01:07:49.740Z,99.90
2023-04-22T01:10:16.580Z,99.90
2023-04-22T01:12:43.391Z,99.90
2023-04-22T01:15:12.479Z,99.90
2023-04-22T01:17:39.426Z,99.90
2023-04-22T01:20:10.311Z,99.90
2023-04-22T01:22:42.114Z,99.90
2023-04-22T01:25:11.588Z,99.90
2023-04-22T01:27:39.563Z,99.90
2023-04-22T01:30:08.673Z,99.90
2023-04-22T01:32:36.123Z,99.90
2023-04-22T01:35:03.787Z,99.90
2023-04-22T01:37:31.037Z,99.90
2023-04-22T01:39:58.927Z,99.90
2023-04-22T01:42:27.224Z,99.90
2023-04-22T01:44:54.539Z,99.90
2023-04-22T01:47:21.448Z,99.90
2023-04-22T01:49:48.325Z,99.90
2023-04-22T01:52:15.370Z,99.90
2023-04-22T01:54:42.054Z,99.90
2023-04-22T01:57:11.595Z,99.90
2023-04-22T01:59:40.411Z,99.90
2023-04-22T02:02:07.642Z,99.90
2023-04-22T02:04:34.607Z,99.90
2023-04-22T02:07:01.498Z,99.90
2023-04-22T02:09:28.320Z,99.90
2023-04-22T02:11:55.114Z,99.90
2023-04-22T02:14:22.024Z,99.90
2023-04-22T02:16:50.168Z,99.90
2023-04-22T02:19:16.941Z,99.90
2023-04-22T02:21:43.974Z,99.90
2023-04-22T02:24:10.834Z,99.90
2023-04-22T02:26:37.696Z,99.90
2023-04-22T02:29:04.518Z,99.90
2023-04-22T02:31:31.520Z,99.90
2023-04-22T02:33:59.848Z,99.90
2023-04-22T02:36:27.741Z,99.90
2023-04-22T02:38:54.723Z,99.90
2023-04-22T02:41:21.588Z,99.90
2023-04-22T02:43:48.417Z,99.90
2023-04-22T02:46:18.527Z,99.90
2023-04-22T02:48:45.326Z,99.90
2023-04-22T02:51:13.560Z,99.90
2023-04-22T02:53:40.744Z,99.90
2023-04-22T02:56:08.502Z,99.90
2023-04-22T02:58:35.375Z,99.90
2023-04-22T03:01:02.274Z,99.90
2023-04-22T03:03:29.161Z,99.90
2023-04-22T03:05:56.108Z,99.90
2023-04-22T03:08:24.937Z,99.90
2023-04-22T03:10:51.814Z,99.90
2023-04-22T03:13:18.649Z,99.90
2023-04-22T03:15:45.495Z,99.90
2023-04-22T03:18:12.392Z,99.90
2023-04-22T03:20:39.283Z,99.90
2023-04-22T03:23:07.733Z,99.90
2023-04-22T03:25:36.196Z,99.90
2023-04-22T03:28:03.077Z,99.90
2023-04-22T03:30:30.019Z,99.90
2023-04-22T03:32:57.535Z,99.90
2023-04-22T03:35:24.665Z,99.90
2023-04-22T03:37:51.473Z,99.90
2023-04-22T03:40:18.463Z,99.90
2023-04-22T03:42:46.663Z,99.90
2023-04-22T03:45:13.490Z,99.90
2023-04-22T03:47:40.400Z,99.90
2023-04-22T03:50:07.864Z,99.90
2023-04-22T03:52:34.681Z,99.90
2023-04-22T03:55:01.553Z,99.90
2023-04-22T03:57:28.442Z,99.90
2023-04-22T03:59:56.616Z,99.90
2023-04-22T04:02:23.641Z,99.90
2023-04-22T04:04:51.082Z,99.90
2023-04-22T04:07:18.280Z,99.90
2023-04-22T04:09:45.114Z,99.90
2023-04-22T04:12:11.945Z,99.90
2023-04-22T04:14:38.803Z,99.90
2023-04-22T04:17:09.075Z,99.90
2023-04-22T04:19:36.362Z,99.90
2023-04-22T04:22:03.241Z,99.90
2023-04-22T04:24:30.132Z,99.90
2023-04-22T04:26:58.063Z,99.90
2023-04-22T04:29:25.211Z,99.90
2023-04-22T04:31:52.292Z,99.90
2023-04-22T04:34:20.572Z,99.90
2023-04-22T04:36:47.403Z,99.90
2023-04-22T04:39:17.206Z,99.90
2023-04-22T04:41:44.996Z,99.90
2023-04-22T04:44:12.175Z,99.90
2023-04-22T04:46:39.438Z,99.90
2023-04-22T04:49:09.368Z,99.90
2023-04-22T04:51:37.537Z,99.90
2023-04-22T04:54:04.892Z,99.90
2023-04-22T04:56:32.100Z,99.90
2023-04-22T04:58:58.997Z,99.90
2023-04-22T05:01:25.953Z,99.90
2023-04-22T05:03:52.920Z,99.90
2023-04-22T05:06:19.816Z,99.90
2023-04-22T05:08:48.180Z,99.90
2023-04-22T05:11:15.053Z,99.90
2023-04-22T05:13:41.898Z,99.90
2023-04-22T05:16:08.849Z,99.90
2023-04-22T05:18:35.662Z,99.90
2023-04-22T05:21:04.263Z,99.90
2023-04-22T05:23:31.159Z,99.90
2023-04-22T05:25:59.404Z,99.90
2023-04-22T05:28:26.239Z,99.90
2023-04-22T05:30:53.060Z,99.90
2023-04-22T05:33:19.876Z,99.90
2023-04-22T05:35:46.767Z,99.90
2023-04-22T05:38:13.551Z,99.90
2023-04-22T05:40:40.586Z,99.90
2023-04-22T05:43:09.014Z,99.90
2023-04-22T05:45:35.964Z,99.90
2023-04-22T05:48:02.950Z,99.90
2023-04-22T05:50:29.844Z,99.90
2023-04-22T05:52:56.665Z,99.90
2023-04-22T05:55:23.483Z,99.90
2023-04-22T05:57:51.419Z,99.90
2023-04-22T06:00:20.057Z,99.90
2023-04-22T06:02:47.050Z,99.90
2023-04-22T06:05:14.182Z,99.90
2023-04-22T06:07:41.203Z,99.90
2023-04-22T06:10:09.274Z,99.90
2023-04-22T06:12:36.188Z,99.90
2023-04-22T06:15:03.344Z,99.90
2023-04-22T06:17:31.596Z,99.90
2023-04-22T06:19:58.379Z,99.90
2023-04-22T06:22:25.215Z,99.90
2023-04-22T06:24:52.011Z,99.90
2023-04-22T06:27:18.886Z,99.90
2023-04-22T06:29:45.771Z,99.90
2023-04-22T06:32:12.576Z,99.90
2023-04-22T06:34:40.757Z,99.90
2023-04-22T06:37:07.715Z,99.90
2023-04-22T06:39:34.591Z,99.90
2023-04-22T06:42:01.698Z,99.90
2023-04-22T06:44:29.055Z,99.90
2023-04-22T06:46:58.123Z,99.90
2023-04-22T06:49:25.300Z,99.90
2023-04-22T06:51:53.473Z,99.90
2023-04-22T06:54:20.306Z,99.90
2023-04-22T06:56:47.318Z,99.90
2023-04-22T06:59:14.139Z,99.90
2023-04-22T07:01:41.200Z,99.90
2023-04-22T07:04:08.125Z,99.90
2023-04-22T07:06:35.059Z,99.90
2023-04-22T07:09:03.411Z,99.90
2023-04-22T07:11:31.432Z,99.90
2023-04-22T07:13:58.356Z,99.90
2023-04-22T07:16:26.520Z,99.90
2023-04-22T07:18:53.368Z,99.90
2023-04-22T07:21:20.561Z,99.90
2023-04-22T07:23:47.446Z,99.90
2023-04-22T07:26:15.752Z,99.90
2023-04-22T07:28:42.619Z,99.90
2023-04-22T07:31:09.568Z,99.90
2023-04-22T07:33:36.560Z,99.90
2023-04-22T07:36:03.808Z,99.90
2023-04-22T07:38:30.709Z,99.90
2023-04-22T07:40:57.537Z,99.90
2023-04-22T07:43:25.721Z,99.90
2023-04-22T07:45:52.712Z,99.90
2023-04-22T07:48:19.543Z,99.90
2023-04-22T07:50:46.508Z,99.90
2023-04-22T07:53:15.370Z,99.90
2023-04-22T07:55:42.225Z,99.90
2023-04-22T07:58:09.001Z,99.90
2023-04-22T08:00:37.167Z,99.90
2023-04-22T08:03:04.802Z,99.90
2023-04-22T08:05:31.964Z,99.90
2023-04-22T08:07:58.884Z,99.90
2023-04-22T08:10:26.113Z,99.90
2023-04-22T08:12:52.957Z,99.90
2023-04-22T08:15:19.980Z,99.90
2023-04-22T08:17:48.977Z,99.90
2023-04-22T08:20:17.914Z,99.80
2023-04-22T08:22:45.103Z,99.70
2023-04-22T08:25:11.918Z,99.60
2023-04-22T08:27:38.976Z,99.40
2023-04-22T08:30:07.289Z,99.30
2023-04-22T08:32:34.224Z,99.10
2023-04-22T08:35:05.430Z,98.80
2023-04-22T08:37:32.764Z,98.50
2023-04-22T08:39:59.637Z,98.20
2023-04-22T08:42:27.290Z,98.10
2023-04-22T08:44:54.922Z,97.90
2023-04-22T08:47:22.134Z,97.70
2023-04-22T08:49:53.170Z,97.40
2023-04-22T08:52:21.545Z,97.10
2023-04-22T08:54:48.441Z,96.90
2023-04-22T08:57:16.373Z,96.70
2023-04-22T08:59:43.590Z,96.70
2023-04-22T09:02:19.235Z,96.50
2023-04-22T09:04:47.815Z,96.30
2023-04-22T09:07:25.155Z,96.20
2023-04-22T09:09:54.674Z,95.80
2023-04-22T09:12:21.739Z,95.40
2023-04-22T09:14:48.690Z,95.00
2023-04-22T09:17:17.043Z,94.80
2023-04-22T09:19:44.013Z,94.60
2023-04-22T09:22:14.085Z,94.50
2023-04-22T09:24:44.114Z,94.30
2023-04-22T09:27:12.393Z,94.20
2023-04-22T09:29:39.561Z,94.30
2023-04-22T09:32:11.171Z,94.40
2023-04-22T09:34:49.522Z,94.40
2023-04-22T09:37:20.232Z,94.50
2023-04-22T09:39:49.745Z,94.40
2023-04-22T09:42:18.251Z,94.40
2023-04-22T09:44:47.205Z,94.40
2023-04-22T09:47:14.768Z,94.50
2023-04-22T09:49:46.516Z,94.50
2023-04-22T09:52:24.884Z,94.60
2023-04-22T09:54:54.688Z,94.70
2023-04-22T09:57:22.893Z,94.70
2023-04-22T09:59:52.020Z,94.70
2023-04-22T10:02:19.368Z,94.70
2023-04-22T10:04:47.560Z,94.70
2023-04-22T10:07:15.248Z,94.60
2023-04-22T10:09:42.323Z,94.50
2023-04-22T10:12:09.143Z,94.40
2023-04-22T10:14:37.421Z,94.10
2023-04-22T10:17:05.348Z,93.90
2023-04-22T10:19:35.546Z,93.90
2023-04-22T10:22:03.986Z,93.70
2023-04-22T10:24:37.878Z,93.40
2023-04-22T10:27:10.583Z,93.20
2023-04-22T10:29:42.498Z,93.20
2023-04-22T10:32:25.772Z,93.10
2023-04-22T10:35:09.252Z,92.70
2023-04-22T10:37:36.412Z,92.40
2023-04-22T10:40:08.979Z,92.30
2023-04-22T10:42:36.515Z,92.10
2023-04-22T10:45:06.286Z,92.20
2023-04-22T10:47:35.011Z,91.70
2023-04-22T10:50:20.704Z,91.70
2023-04-22T10:52:51.164Z,91.70
2023-04-22T10:55:18.818Z,91.70
2023-04-22T10:57:48.787Z,91.60
2023-04-22T11:00:25.917Z,91.40
2023-04-22T11:02:55.520Z,91.00
2023-04-22T11:05:26.226Z,90.80
2023-04-22T11:07:57.842Z,90.40
2023-04-22T11:10:33.310Z,90.30
2023-04-22T11:13:01.504Z,90.10
2023-04-22T11:15:31.463Z,90.00
2023-04-22T11:17:58.839Z,89.70
2023-04-22T11:20:26.362Z,89.50
2023-04-22T11:22:56.452Z,89.10
2023-04-22T11:25:25.181Z,88.40
2023-04-22T11:27:54.192Z,87.70
2023-04-22T11:30:22.829Z,87.10
2023-04-22T11:32:52.663Z,86.30
2023-04-22T11:35:21.323Z,85.80
2023-04-22T11:37:50.217Z,85.40
2023-04-22T11:42:49.391Z,83.00
2023-04-22T11:45:17.152Z,82.30
2023-04-22T11:47:46.379Z,81.60
2023-04-22T11:50:14.847Z,80.90
2023-04-22T11:52:46.410Z,79.80
2023-04-22T11:55:13.801Z,78.40
2023-04-22T11:57:41.074Z,77.70
2023-04-22T12:00:12.383Z,76.30
2023-04-22T12:02:39.707Z,74.80
2023-04-22T12:05:11.818Z,73.20
2023-04-22T12:07:40.210Z,72.30
2023-04-22T12:10:08.532Z,71.90
2023-04-22T12:12:37.137Z,71.70
2023-04-22T12:15:09.188Z,71.40
2023-04-22T12:17:36.092Z,70.20
2023-04-22T12:20:04.597Z,69.50
2023-04-22T12:22:33.359Z,69.00
2023-04-22T12:25:02.018Z,68.70
2023-04-22T12:27:28.838Z,68.20
2023-04-22T12:29:56.653Z,67.80
2023-04-22T12:32:25.903Z,67.50
2023-04-22T12:34:53.052Z,67.30
2023-04-22T12:37:20.133Z,67.40
2023-04-22T12:39:47.085Z,67.50
2023-04-22T12:42:15.379Z,67.40
2023-04-22T12:44:43.217Z,67.30
2023-04-22T12:47:10.070Z,67.50
2023-04-22T12:49:38.596Z,67.10
2023-04-22T12:52:06.318Z,66.80
2023-04-22T12:54:33.204Z,66.90
2023-04-22T12:57:00.120Z,67.20
2023-04-22T12:59:28.602Z,66.70
2023-04-22T13:01:55.620Z,66.80
2023-04-22T13:04:22.694Z,67.30
2023-04-22T13:06:56.025Z,67.60
2023-04-22T13:09:24.315Z,67.90
2023-04-22T13:11:52.407Z,68.20
2023-04-22T13:14:19.487Z,68.70
2023-04-22T13:16:47.659Z,69.00
2023-04-22T13:19:14.534Z,69.30
2023-04-22T13:21:41.512Z,70.00
2023-04-22T13:24:08.960Z,70.70
2023-04-22T13:26:36.927Z,71.20
2023-04-22T13:29:03.800Z,71.70
2023-04-22T13:31:30.700Z,73.00
2023-04-22T13:33:58.860Z,72.60
2023-04-22T13:36:26.364Z,72.90
2023-04-22T13:38:53.255Z,73.00
2023-04-22T13:41:20.059Z,73.20
2023-04-22T13:43:51.731Z,73.20
2023-04-22T13:46:18.731Z,73.50
2023-04-22T13:48:45.750Z,73.70
2023-04-22T13:51:14.492Z,74.00
2023-04-22T13:53:41.395Z,74.20
2023-04-22T13:56:08.640Z,74.50
2023-04-22T13:58:35.494Z,74.80
2023-04-22T14:01:02.336Z,74.90
2023-04-22T14:03:30.963Z,74.80
2023-04-22T14:05:57.962Z,74.70
2023-04-22T14:08:26.335Z,74.70
2023-04-22T14:10:53.578Z,74.80
2023-04-22T14:13:21.253Z,74.90
2023-04-22T14:15:50.470Z,75.00
2023-04-22T14:18:17.420Z,75.10
2023-04-22T14:20:45.115Z,75.40
2023-04-22T14:23:12.141Z,75.70
2023-04-22T14:25:40.436Z,75.80
2023-04-22T14:28:07.345Z,75.80
2023-04-22T14:30:34.895Z,75.90
2023-04-22T14:33:02.394Z,75.90
2023-04-22T14:35:29.642Z,76.10
2023-04-22T14:37:56.495Z,76.90
2023-04-22T14:40:27.681Z,76.60
2023-04-22T14:42:56.471Z,77.00
2023-04-22T14:45:24.206Z,77.40
2023-04-22T14:47:51.212Z,77.70
2023-04-22T14:50:18.261Z,78.00
2023-04-22T14:52:45.348Z,78.40
2023-04-22T14:55:22.675Z,78.80
2023-04-22T14:57:52.149Z,79.10
2023-04-22T15:00:20.640Z,79.40
2023-04-22T15:02:47.699Z,79.60
2023-04-22T15:05:14.669Z,79.70
2023-04-22T15:07:41.567Z,79.80
2023-04-22T15:10:09.232Z,79.90
2023-04-22T15:12:36.181Z,80.10
2023-04-22T15:15:03.328Z,80.30
2023-04-22T15:17:31.846Z,80.50
2023-04-22T15:19:59.918Z,81.40
2023-04-22T15:22:26.753Z,81.00
2023-04-22T15:24:53.523Z,81.20
2023-04-22T15:27:20.426Z,81.60
2023-04-22T15:29:47.406Z,81.80
2023-04-22T15:32:14.254Z,82.10
2023-04-22T15:34:42.499Z,82.40
2023-04-22T15:37:09.805Z,82.60
2023-04-22T15:39:37.381Z,83.00
2023-04-22T15:42:04.294Z,83.30
2023-04-22T15:44:31.153Z,83.50
2023-04-22T15:46:59.560Z,83.90
2023-04-22T15:49:26.553Z,84.20
2023-04-22T15:51:54.797Z,84.40
2023-04-22T15:54:21.677Z,84.60
2023-04-22T15:56:48.568Z,84.50
2023-04-22T15:59:15.632Z,84.50
2023-04-22T16:01:44.386Z,84.70
2023-04-22T16:04:13.466Z,85.00
2023-04-22T16:06:40.752Z,85.20
2023-04-22T16:09:08.902Z,85.50
2023-04-22T16:11:35.736Z,85.80
2023-04-22T16:14:02.611Z,86.00
2023-04-22T16:16:29.699Z,86.30
2023-04-22T16:18:56.722Z,86.40
2023-04-22T16:21:24.189Z,86.80
2023-04-22T16:23:51.100Z,87.10
2023-04-22T16:26:19.804Z,87.30
2023-04-22T16:28:46.854Z,87.50
2023-04-22T16:31:13.828Z,87.90
2023-04-22T16:33:40.812Z,88.10
2023-04-22T16:36:08.951Z,88.20
2023-04-22T16:38:35.814Z,88.10
2023-04-22T16:41:03.851Z,88.10
2023-04-22T16:43:32.073Z,88.10
2023-04-22T16:45:59.063Z,88.30
2023-04-22T16:48:26.177Z,88.30
2023-04-22T16:50:53.259Z,88.50
2023-04-22T16:53:20.149Z,88.50
2023-04-22T16:55:47.004Z,88.60
2023-04-22T16:58:13.853Z,88.70
2023-04-22T17:00:41.997Z,88.90
2023-04-22T17:03:09.008Z,89.10
2023-04-22T17:05:36.028Z,89.30
2023-04-22T17:08:03.307Z,89.50
2023-04-22T17:10:30.653Z,89.70
2023-04-22T17:12:57.545Z,89.80
2023-04-22T17:15:24.386Z,90.00
2023-04-22T17:17:52.692Z,90.10
2023-04-22T17:20:19.594Z,90.20
2023-04-22T17:22:46.732Z,90.20
2023-04-22T17:25:13.882Z,90.30
2023-04-22T17:27:41.261Z,90.40
2023-04-22T17:30:09.002Z,90.50
2023-04-22T17:32:36.014Z,90.50
2023-04-22T17:35:04.664Z,90.60
2023-04-22T17:37:31.528Z,90.70
2023-04-22T17:39:58.493Z,90.70
2023-04-22T17:42:38.911Z,90.70
2023-04-22T17:45:11.305Z,90.80
2023-04-22T17:47:38.787Z,91.00
2023-04-22T17:50:08.323Z,91.10
2023-04-22T17:52:35.376Z,91.30
2023-04-22T17:55:02.197Z,91.40
2023-04-22T17:57:29.053Z,91.60
2023-04-22T17:59:55.962Z,91.70
2023-04-22T18:02:23.510Z,91.90
2023-04-22T18:04:50.668Z,92.00
2023-04-22T18:07:19.054Z,92.00
2023-04-22T18:09:45.996Z,92.10
2023-04-22T18:12:12.952Z,92.20
2023-04-22T18:14:40.017Z,92.30
2023-04-22T18:17:07.024Z,92.40
2023-04-22T18:19:33.892Z,92.50
2023-04-22T18:22:01.023Z,92.50
2023-04-22T18:24:29.324Z,92.60
2023-04-22T18:26:56.384Z,92.80
2023-04-22T18:29:23.332Z,92.80
2023-04-22T18:31:50.712Z,92.90
2023-04-22T18:34:18.441Z,93.00
2023-04-22T18:36:45.670Z,93.10
2023-04-22T18:39:13.047Z,93.20
2023-04-22T18:41:43.596Z,93.30
2023-04-22T18:44:11.173Z,93.40
2023-04-22T18:46:38.226Z,93.90
2023-04-22T18:49:05.535Z,93.70
2023-04-22T18:51:33.465Z,93.90
2023-04-22T18:54:00.995Z,94.10
2023-04-22T18:56:33.141Z,94.30
2023-04-22T18:59:01.850Z,94.60
2023-04-22T19:01:29.267Z,94.90
2023-04-22T19:03:56.399Z,95.20
2023-04-22T19:06:23.410Z,95.40
2023-04-22T19:08:52.964Z,95.70
2023-04-22T19:11:20.365Z,96.00
2023-04-22T19:13:47.514Z,96.30
2023-04-22T19:16:16.503Z,96.60
2023-04-22T19:18:45.094Z,96.80
2023-04-22T19:21:13.367Z,97.10
2023-04-22T19:23:41.508Z,97.30
2023-04-22T19:26:11.009Z,97.60
2023-04-22T19:28:37.912Z,97.70
2023-04-22T19:31:05.014Z,98.00
2023-04-22T19:33:33.862Z,98.20
2023-04-22T19:36:01.678Z,98.40
2023-04-22T19:38:28.657Z,98.60
2023-04-22T19:40:56.797Z,98.70
2023-04-22T19:43:23.870Z,98.90
2023-04-22T19:45:50.792Z,99.00
2023-04-22T19:48:18.962Z,99.20
2023-04-22T19:50:48.803Z,99.30
2023-04-22T19:53:16.928Z,99.40
2023-04-22T19:55:44.586Z,99.50
2023-04-22T19:58:12.064Z,99.70
2023-04-22T20:00:39.694Z,99.90
2023-04-22T20:03:07.596Z,99.90
2023-04-22T20:05:35.647Z,99.90
2023-04-22T20:08:07.291Z,99.90
2023-04-22T20:10:34.458Z,99.90
2023-04-22T20:13:03.946Z,99.90
2023-04-22T20:15:32.118Z,99.90
2023-04-22T20:17:59.989Z,99.90
2023-04-22T20:20:27.752Z,99.90
2023-04-22T20:22:57.578Z,99.90
2023-04-22T20:25:29.569Z,99.90
2023-04-22T20:27:57.491Z,99.90
2023-04-22T20:30:25.934Z,99.90
2023-04-22T20:32:54.031Z,99.90
2023-04-22T20:35:22.122Z,99.90
2023-04-22T20:37:50.803Z,99.90
2023-04-22T20:40:18.788Z,99.90
2023-04-22T20:42:47.284Z,99.90
2023-04-22T20:45:15.833Z,99.90
2023-04-22T20:47:43.174Z,99.90
2023-04-22T20:50:11.025Z,99.90
2023-04-22T20:52:39.011Z,99.90
2023-04-22T20:55:07.089Z,99.90
2023-04-22T20:57:33.922Z,99.90
2023-04-22T21:00:04.307Z,99.90
2023-04-22T21:02:33.211Z,99.90
2023-04-22T21:05:02.336Z,99.90
2023-04-22T21:07:31.497Z,99.90
2023-04-22T21:09:59.041Z,99.90
2023-04-22T21:12:27.414Z,99.90
2023-04-22T21:14:55.408Z,99.90
2023-04-22T21:17:29.758Z,99.90
2023-04-22T21:19:58.124Z,99.90
2023-04-22T21:22:25.703Z,99.90
2023-04-22T21:24:53.916Z,99.90
2023-04-22T21:27:22.277Z,99.90
2023-04-22T21:29:49.989Z,99.90
2023-04-22T21:32:20.006Z,99.90
2023-04-22T21:34:48.271Z,99.90
2023-04-22T21:37:15.421Z,99.90
2023-04-22T21:39:42.663Z,99.90
2023-04-22T21:42:09.892Z,99.90
2023-04-22T21:44:38.176Z,99.90
2023-04-22T21:47:06.033Z,99.90
2023-04-22T21:49:33.638Z,99.90
2023-04-22T21:52:01.959Z,99.90
2023-04-22T21:54:28.951Z,99.90
2023-04-22T21:56:56.916Z,99.90
2023-04-22T21:59:24.741Z,99.90
2023-04-22T22:01:51.750Z,99.90
2023-04-22T22:04:18.599Z,99.90
2023-04-22T22:06:45.646Z,99.90
2023-04-22T22:09:14.241Z,99.90
2023-04-22T22:11:41.008Z,99.90
2023-04-22T22:14:07.900Z,99.90
2023-04-22T22:16:34.898Z,99.90
2023-04-22T22:19:04.451Z,99.90
2023-04-22T22:21:32.704Z,99.90
2023-04-22T22:23:59.667Z,99.90
2023-04-22T22:26:29.139Z,99.90
2023-04-22T22:28:55.930Z,99.90
2023-04-22T22:31:22.888Z,99.90
2023-04-22T22:33:49.762Z,99.90
2023-04-22T22:36:16.688Z,99.90
2023-04-22T22:38:43.519Z,99.90
2023-04-22T22:41:10.375Z,99.90
2023-04-22T22:43:38.656Z,99.90
2023-04-22T22:46:05.722Z,99.90
2023-04-22T22:48:32.755Z,99.90
2023-04-22T22:50:59.650Z,99.90
2023-04-22T22:53:26.786Z,99.90
2023-04-22T22:55:53.613Z,99.90
2023-04-22T22:58:20.465Z,99.90
2023-04-22T23:00:48.646Z,99.90
2023-04-22T23:03:17.044Z,99.90
2023-04-22T23:05:46.059Z,99.90
2023-04-22T23:08:13.245Z,99.90
2023-04-22T23:10:40.072Z,99.90
2023-04-22T23:13:06.846Z,99.90
2023-04-22T23:15:33.706Z,99.90
2023-04-22T23:18:02.072Z,99.90
2023-04-22T23:20:29.105Z,99.90
2023-04-22T23:22:57.131Z,99.90
2023-04-22T23:25:24.334Z,99.90
2023-04-22T23:27:51.608Z,99.90
2023-04-22T23:30:19.373Z,99.90
2023-04-22T23:32:47.951Z,99.90
2023-04-22T23:35:17.031Z,99.90
2023-04-22T23:37:45.540Z,99.90
2023-04-22T23:40:13.302Z,99.90
2023-04-22T23:42:40.252Z,99.90
2023-04-22T23:45:08.372Z,99.90
2023-04-22T23:47:35.327Z,99.90
2023-04-22T23:50:02.740Z,99.90
2023-04-22T23:52:30.999Z,99.90
2023-04-22T23:54:58.340Z,99.90
2023-04-22T23:57:25.668Z,99.90
2023-04-22T23:59:53.051Z,99.90
